createdAt,value
2018-05-17T00:01:56.838Z,98111.02
2018-05-17T00:04:25.285Z,98104.64
2018-05-17T00:06:53.629Z,98104.05
2018-05-17T00:09:22.255Z,98110.87
2018-05-17T00:11:50.667Z,98113.88
2018-05-17T00:14:20.075Z,98108.70
2018-05-17T00:16:49.198Z,98102.55
2018-05-17T00:19:17.502Z,98104.01
2018-05-17T00:21:46.592Z,98106.50
2018-05-17T00:24:14.875Z,98101.66
2018-05-17T00:26:43.598Z,98105.09
2018-05-17T00:29:11.930Z,98103.45
2018-05-17T00:31:40.226Z,98103.87
2018-05-17T00:34:08.522Z,98108.70
2018-05-17T00:36:37.006Z,98105.77
2018-05-17T00:39:05.311Z,98101.27
2018-05-17T00:41:34.342Z,98101.99
2018-05-17T00:44:02.695Z,98098.62
2018-05-17T00:46:30.996Z,98092.24
2018-05-17T00:48:59.299Z,98093.52
2018-05-17T00:51:27.918Z,98096.29
2018-05-17T00:53:56.582Z,98089.53
2018-05-17T00:56:24.895Z,98078.62
2018-05-17T00:58:53.238Z,98078.66
2018-05-17T01:01:21.539Z,98077.39
2018-05-17T01:03:49.594Z,98070.45
2018-05-17T01:06:17.927Z,98062.44
2018-05-17T01:08:46.224Z,98067.05
2018-05-17T01:11:14.866Z,98070.77
2018-05-17T01:13:43.966Z,98069.99
2018-05-17T01:16:13.030Z,98072.75
2018-05-17T01:18:42.027Z,98074.03
2018-05-17T01:21:10.383Z,98077.54
2018-05-17T01:23:38.995Z,98084.34
2018-05-17T01:26:07.302Z,98079.55
2018-05-17T01:28:35.657Z,98076.70
2018-05-17T01:31:04.104Z,98076.20
2018-05-17T01:33:32.391Z,98078.96
2018-05-17T01:36:00.707Z,98075.42
2018-05-17T01:38:29.624Z,98067.17
2018-05-17T01:40:58.461Z,98069.04
2018-05-17T01:43:27.659Z,98073.28
2018-05-17T01:45:56.391Z,98066.02
2018-05-17T01:48:24.686Z,98063.66
2018-05-17T01:50:56.071Z,98066.40
2018-05-17T01:53:24.370Z,98071.32
2018-05-17T01:55:53.251Z,98072.62
2018-05-17T01:58:21.576Z,98067.61
2018-05-17T02:00:49.982Z,98063.45
2018-05-17T02:03:18.550Z,98067.39
2018-05-17T02:05:47.910Z,98065.70
2018-05-17T02:08:16.335Z,98064.14
2018-05-17T02:10:44.727Z,98063.95
2018-05-17T02:13:13.103Z,98056.89
2018-05-17T02:15:41.423Z,98058.85
2018-05-17T02:18:10.406Z,98058.36
2018-05-17T02:20:38.719Z,98064.42
2018-05-17T02:23:07.695Z,98066.20
2018-05-17T02:25:36.066Z,98066.89
2018-05-17T02:28:04.402Z,98067.69
2018-05-17T02:30:33.159Z,98072.50
2018-05-17T02:33:02.266Z,98075.94
2018-05-17T02:35:31.034Z,98078.38
2018-05-17T02:37:59.337Z,98075.34
2018-05-17T02:40:28.291Z,98076.42
2018-05-17T02:42:56.594Z,98074.76
2018-05-17T02:45:24.888Z,98072.11
2018-05-17T02:47:53.899Z,98072.91
2018-05-17T02:50:22.894Z,98069.42
2018-05-17T02:52:51.491Z,98071.89
2018-05-17T02:55:19.810Z,98073.48
2018-05-17T02:57:48.404Z,98076.41
2018-05-17T03:00:16.918Z,98078.28
2018-05-17T03:02:45.263Z,98078.96
2018-05-17T03:05:13.559Z,98086.44
2018-05-17T03:07:41.854Z,98086.91
2018-05-17T03:10:10.204Z,98081.91
2018-05-17T03:12:39.219Z,98086.02
2018-05-17T03:15:07.513Z,98092.12
2018-05-17T03:17:36.486Z,98086.70
2018-05-17T03:20:04.910Z,98085.03
2018-05-17T03:22:33.271Z,98090.64
2018-05-17T03:25:01.640Z,98091.72
2018-05-17T03:27:29.932Z,98093.69
2018-05-17T03:29:58.950Z,98091.84
2018-05-17T03:32:27.774Z,98085.64
2018-05-17T03:34:56.080Z,98094.88
2018-05-17T03:37:24.387Z,98093.60
2018-05-17T03:39:52.734Z,98088.77
2018-05-17T03:42:21.179Z,98094.47
2018-05-17T03:44:50.291Z,98089.44
2018-05-17T03:47:19.243Z,98088.55
2018-05-17T03:49:47.558Z,98094.06
2018-05-17T03:52:15.851Z,98093.87
2018-05-17T03:54:44.200Z,98092.20
2018-05-17T03:57:12.785Z,98092.97
2018-05-17T03:59:41.087Z,98089.35
2018-05-17T04:15:47.591Z,98105.72
2018-05-17T04:18:16.134Z,98104.45
2018-05-17T04:20:44.906Z,98103.75
2018-05-17T04:23:13.250Z,98106.22
2018-05-17T04:25:41.547Z,98110.90
2018-05-17T04:28:10.403Z,98106.39
2018-05-17T04:30:38.736Z,98111.69
2018-05-17T04:33:07.043Z,98113.36
2018-05-17T04:35:35.431Z,98113.09
2018-05-17T04:38:04.606Z,98114.69
2018-05-17T04:40:33.158Z,98122.15
2018-05-17T04:43:01.450Z,98117.64
2018-05-17T04:45:29.885Z,98118.80
2018-05-17T04:47:58.182Z,98123.02
2018-05-17T04:50:26.543Z,98124.22
2018-05-17T04:52:55.328Z,98121.46
2018-05-17T04:55:23.862Z,98123.94
2018-05-17T04:57:52.163Z,98125.89
2018-05-17T05:00:20.499Z,98131.80
2018-05-17T05:02:48.871Z,98124.22
2018-05-17T05:05:17.234Z,98125.09
2018-05-17T05:07:45.931Z,98139.55
2018-05-17T05:10:14.238Z,98136.69
2018-05-17T05:12:42.536Z,98134.23
2018-05-17T05:15:10.873Z,98127.03
2018-05-17T05:17:39.400Z,98132.77
2018-05-17T05:20:07.690Z,98140.70
2018-05-17T05:22:36.114Z,98146.34
2018-05-17T05:25:05.759Z,98146.11
2018-05-17T05:27:34.063Z,98143.98
2018-05-17T05:30:02.513Z,98147.41
2018-05-17T05:32:30.571Z,98153.09
2018-05-17T05:34:59.619Z,98158.80
2018-05-17T05:37:28.001Z,98163.27
2018-05-17T05:39:56.863Z,98160.45
2018-05-17T05:42:25.292Z,98165.66
2018-05-17T05:44:53.656Z,98152.14
2018-05-17T05:47:21.960Z,98149.75
2018-05-17T05:49:50.367Z,98140.20
2018-05-17T05:52:18.709Z,98150.69
2018-05-17T05:54:47.713Z,98152.89
2018-05-17T05:57:16.335Z,98148.95
2018-05-17T05:59:44.762Z,98152.52
2018-05-17T06:02:13.056Z,98156.22
2018-05-17T06:04:41.346Z,98155.30
2018-05-17T06:07:09.951Z,98153.13
2018-05-17T06:09:40.257Z,98151.72
2018-05-17T06:12:08.866Z,98157.42
2018-05-17T06:14:37.304Z,98170.07
2018-05-17T06:17:05.526Z,98165.20
2018-05-17T06:19:33.889Z,98174.89
2018-05-17T06:22:02.604Z,98176.48
2018-05-17T06:24:30.963Z,98168.80
2018-05-17T06:26:59.446Z,98172.50
2018-05-17T06:29:27.598Z,98180.30
2018-05-17T06:31:56.563Z,98176.36
2018-05-17T06:34:26.015Z,98177.72
2018-05-17T06:36:54.347Z,98180.06
2018-05-17T06:39:22.635Z,98178.48
2018-05-17T06:41:50.924Z,98178.05
2018-05-17T06:44:20.446Z,98189.06
2018-05-17T06:46:49.679Z,98188.07
2018-05-17T06:49:17.971Z,98182.78
2018-05-17T06:51:46.446Z,98193.78
2018-05-17T06:54:14.742Z,98191.81
2018-05-17T06:56:43.032Z,98192.62
2018-05-17T06:59:11.690Z,98194.68
2018-05-17T07:01:40.099Z,98199.42
2018-05-17T07:04:08.387Z,98197.19
2018-05-17T07:06:36.876Z,98201.55
2018-05-17T07:09:05.979Z,98200.16
2018-05-17T07:11:34.274Z,98202.09
2018-05-17T07:14:02.613Z,98204.78
2018-05-17T07:16:31.022Z,98203.98
2018-05-17T07:19:00.103Z,98207.59
2018-05-17T07:21:29.105Z,98217.33
2018-05-17T07:23:57.903Z,98214.23
2018-05-17T07:26:26.595Z,98217.25
2018-05-17T07:28:55.174Z,98219.02
2018-05-17T07:31:23.603Z,98224.19
2018-05-17T07:33:52.154Z,98227.21
2018-05-17T07:36:22.738Z,98229.95
2018-05-17T07:38:51.590Z,98237.06
2018-05-17T07:41:19.926Z,98233.84
2018-05-17T07:43:48.670Z,98233.92
2018-05-17T07:46:17.481Z,98237.95
2018-05-17T07:48:45.897Z,98239.01
2018-05-17T07:51:14.411Z,98245.17
2018-05-17T07:53:43.791Z,98238.87
2018-05-17T07:56:12.116Z,98242.02
2018-05-17T07:58:40.462Z,98242.21
2018-05-17T08:01:08.761Z,98247.37
2018-05-17T08:03:38.083Z,98250.50
2018-05-17T08:06:06.439Z,98251.80
2018-05-17T08:08:34.738Z,98258.27
2018-05-17T08:11:03.736Z,98248.95
2018-05-17T08:13:33.479Z,98256.75
2018-05-17T08:16:02.882Z,98254.68
2018-05-17T08:18:32.278Z,98255.74
2018-05-17T08:21:01.758Z,98258.00
2018-05-17T08:23:30.123Z,98258.45
2018-05-17T08:25:59.046Z,98265.25
2018-05-17T08:28:27.347Z,98257.68
2018-05-17T08:30:55.695Z,98273.70
2018-05-17T08:33:24.264Z,98271.95
2018-05-17T08:35:52.562Z,98281.09
2018-05-17T08:38:22.179Z,98280.03
2018-05-17T08:40:50.576Z,98289.39
2018-05-17T08:43:19.330Z,98295.97
2018-05-17T08:45:48.419Z,98297.73
2018-05-17T08:48:18.222Z,98301.95
2018-05-17T08:50:47.014Z,98296.76
2018-05-17T08:53:15.811Z,98305.00
2018-05-17T08:55:44.098Z,98305.18
2018-05-17T08:58:12.447Z,98294.56
2018-05-17T09:00:40.942Z,98292.80
2018-05-17T09:03:10.032Z,98303.59
2018-05-17T09:05:39.954Z,98304.19
2018-05-17T09:08:09.038Z,98307.34
2018-05-17T09:10:38.022Z,98309.58
2018-05-17T09:13:06.375Z,98312.34
2018-05-17T09:15:34.680Z,98309.19
2018-05-17T09:18:03.198Z,98306.45
2018-05-17T09:20:33.123Z,98308.23
2018-05-17T09:23:01.587Z,98307.63
2018-05-17T09:25:29.951Z,98304.89
2018-05-17T09:27:58.764Z,98302.52
2018-05-17T09:30:27.505Z,98314.02
2018-05-17T09:32:56.631Z,98320.61
2018-05-17T09:35:25.315Z,98323.77
2018-05-17T09:37:53.610Z,98328.60
2018-05-17T09:40:22.387Z,98333.11
2018-05-17T09:42:50.682Z,98336.45
2018-05-17T09:45:19.286Z,98335.02
2018-05-17T09:47:48.227Z,98337.98
2018-05-17T09:50:16.550Z,98341.22
2018-05-17T09:52:45.387Z,98344.28
2018-05-17T09:55:13.676Z,98343.31
2018-05-17T09:57:41.998Z,98346.42
2018-05-17T10:00:10.336Z,98347.70
2018-05-17T10:02:38.956Z,98351.50
2018-05-17T10:05:07.650Z,98351.93
2018-05-17T10:07:35.975Z,98349.66
2018-05-17T10:10:04.415Z,98350.17
2018-05-17T10:12:33.585Z,98347.41
2018-05-17T10:15:02.299Z,98344.25
2018-05-17T10:17:30.767Z,98341.10
2018-05-17T10:19:59.913Z,98335.97
2018-05-17T10:22:28.607Z,98338.95
2018-05-17T10:24:56.898Z,98347.51
2018-05-17T10:27:27.206Z,98347.31
2018-05-17T10:29:55.526Z,98347.71
2018-05-17T10:32:23.838Z,98341.91
2018-05-17T10:34:52.347Z,98347.48
2018-05-17T10:37:21.146Z,98345.41
2018-05-17T10:39:49.442Z,98348.24
2018-05-17T10:42:17.964Z,98346.66
2018-05-17T10:44:46.282Z,98347.85
2018-05-17T10:47:15.058Z,98345.75
2018-05-17T10:49:45.803Z,98348.20
2018-05-17T10:52:14.795Z,98343.18
2018-05-17T10:54:43.743Z,98354.78
2018-05-17T10:57:12.031Z,98353.73
2018-05-17T10:59:41.199Z,98352.22
2018-05-17T11:02:09.751Z,98351.85
2018-05-17T11:04:38.047Z,98350.88
2018-05-17T11:07:06.446Z,98354.89
2018-05-17T11:09:34.923Z,98363.08
2018-05-17T11:12:04.363Z,98364.51
2018-05-17T11:14:33.090Z,98369.63
2018-05-17T11:17:01.419Z,98367.03
2018-05-17T11:19:29.713Z,98370.88
2018-05-17T11:21:58.130Z,98377.61
2018-05-17T11:24:27.390Z,98368.77
2018-05-17T11:26:55.688Z,98366.12
2018-05-17T11:29:24.209Z,98366.12
2018-05-17T11:31:52.505Z,98371.27
2018-05-17T11:34:20.793Z,98368.38
2018-05-17T11:36:49.661Z,98367.25
2018-05-17T11:39:17.971Z,98366.83
2018-05-17T11:41:46.259Z,98371.84
2018-05-17T11:44:14.680Z,98364.18
2018-05-17T11:46:42.910Z,98368.53
2018-05-17T11:49:11.473Z,98363.05
2018-05-17T11:51:39.802Z,98368.61
2018-05-17T11:54:08.575Z,98371.53
2018-05-17T11:56:36.869Z,98370.73
2018-05-17T11:59:05.714Z,98366.54
2018-05-17T12:01:34.015Z,98369.42
2018-05-17T12:04:03.084Z,98373.04
2018-05-17T12:06:32.167Z,98374.48
2018-05-17T12:09:01.231Z,98374.28
2018-05-17T12:11:30.289Z,98370.39
2018-05-17T12:13:58.629Z,98375.30
2018-05-17T12:16:26.923Z,98371.06
2018-05-17T12:18:55.218Z,98376.06
2018-05-17T12:21:23.547Z,98373.52
2018-05-17T12:23:51.835Z,98366.72
2018-05-17T12:26:20.759Z,98371.53
2018-05-17T12:28:49.374Z,98374.83
2018-05-17T12:31:17.671Z,98375.69
2018-05-17T12:33:45.972Z,98380.31
2018-05-17T12:36:14.663Z,98372.34
2018-05-17T12:38:42.947Z,98375.73
2018-05-17T12:41:11.234Z,98380.36
2018-05-17T12:43:39.562Z,98377.24
2018-05-17T12:46:09.139Z,98372.85
2018-05-17T12:48:37.515Z,98370.85
2018-05-17T12:51:06.249Z,98376.69
2018-05-17T12:53:34.592Z,98375.61
2018-05-17T12:56:03.027Z,98367.82
2018-05-17T12:58:31.672Z,98371.39
2018-05-17T13:01:00.682Z,98363.67
2018-05-17T13:03:28.979Z,98370.15
2018-05-17T13:05:57.806Z,98366.40
2018-05-17T13:08:26.095Z,98365.70
2018-05-17T13:10:54.459Z,98368.31
2018-05-17T13:13:23.627Z,98361.66
2018-05-17T13:15:52.376Z,98362.50
2018-05-17T13:18:22.031Z,98365.61
2018-05-17T13:20:51.439Z,98368.16
2018-05-17T13:23:20.170Z,98362.09
2018-05-17T13:25:49.676Z,98366.48
2018-05-17T13:28:18.815Z,98373.30
2018-05-17T13:30:47.750Z,98365.50
2018-05-17T13:33:16.056Z,98367.81
2018-05-17T13:35:44.427Z,98369.03
2018-05-17T13:38:12.887Z,98366.55
2018-05-17T13:40:41.688Z,98360.84
2018-05-17T13:43:10.024Z,98361.49
2018-05-17T13:45:38.311Z,98366.02
2018-05-17T13:48:07.736Z,98362.28
2018-05-17T13:50:36.199Z,98359.02
2018-05-17T13:53:04.939Z,98362.05
2018-05-17T13:55:33.326Z,98363.54
2018-05-17T13:58:02.397Z,98361.61
2018-05-17T14:00:30.694Z,98362.10
2018-05-17T14:02:58.986Z,98366.12
2018-05-17T14:05:27.305Z,98362.16
2018-05-17T14:07:55.590Z,98363.17
2018-05-17T14:10:23.879Z,98371.84
2018-05-17T14:12:52.425Z,98368.08
2018-05-17T14:15:21.419Z,98372.87
2018-05-17T14:17:49.678Z,98372.55
2018-05-17T14:20:18.811Z,98374.64
2018-05-17T14:22:47.685Z,98371.30
2018-05-17T14:25:15.971Z,98372.58
2018-05-17T14:27:44.614Z,98371.81
2018-05-17T14:30:12.910Z,98377.87
2018-05-17T14:32:41.210Z,98373.02
2018-05-17T14:35:09.557Z,98376.16
2018-05-17T14:37:37.845Z,98380.42
2018-05-17T14:40:06.147Z,98380.80
2018-05-17T14:42:34.527Z,98382.44
2018-05-17T14:45:02.840Z,98376.48
2018-05-17T14:47:31.127Z,98376.03
2018-05-17T14:49:59.458Z,98380.83
2018-05-17T14:52:27.751Z,98379.17
2018-05-17T14:54:56.043Z,98376.92
2018-05-17T14:57:24.918Z,98383.54
2018-05-17T14:59:53.210Z,98384.53
2018-05-17T15:02:22.259Z,98382.98
2018-05-17T15:04:51.274Z,98386.75
2018-05-17T15:07:19.571Z,98379.73
2018-05-17T15:09:48.643Z,98388.76
2018-05-17T15:12:17.047Z,98385.28
2018-05-17T15:14:45.504Z,98386.38
2018-05-17T15:17:14.309Z,98382.55
2018-05-17T15:19:42.645Z,98380.69
2018-05-17T15:22:11.570Z,98376.09
2018-05-17T15:24:39.892Z,98368.94
2018-05-17T15:27:08.721Z,98371.63
2018-05-17T15:29:37.151Z,98367.88
2018-05-17T15:32:06.069Z,98374.50
2018-05-17T15:34:34.518Z,98376.36
2018-05-17T15:37:04.599Z,98380.70
2018-05-17T15:39:32.872Z,98380.49
2018-05-17T15:42:01.163Z,98376.17
2018-05-17T15:44:29.796Z,98384.28
2018-05-17T15:46:58.596Z,98384.70
2018-05-17T15:49:26.899Z,98381.05
2018-05-17T15:51:55.655Z,98385.70
2018-05-17T15:54:24.332Z,98381.34
2018-05-17T15:56:52.630Z,98381.82
2018-05-17T15:59:20.931Z,98381.64
2018-05-17T16:01:50.304Z,98375.49
2018-05-17T16:04:18.646Z,98369.87
2018-05-17T16:06:47.696Z,98375.48
2018-05-17T16:09:16.514Z,98371.83
2018-05-17T16:11:44.819Z,98369.06
2018-05-17T16:14:13.162Z,98371.02
2018-05-17T16:16:41.447Z,98375.98
2018-05-17T16:19:09.735Z,98369.93
2018-05-17T16:21:38.835Z,98371.46
2018-05-17T16:24:09.071Z,98373.84
2018-05-17T16:26:37.368Z,98371.72
2018-05-17T16:29:05.708Z,98368.92
2018-05-17T16:31:34.267Z,98367.89
2018-05-17T16:34:02.554Z,98373.69
2018-05-17T16:36:30.859Z,98372.78
2018-05-17T16:39:00.558Z,98368.23
2018-05-17T16:41:28.859Z,98375.11
2018-05-17T16:43:57.187Z,98381.02
2018-05-17T16:46:25.650Z,98379.98
2018-05-17T16:48:53.939Z,98385.72
2018-05-17T16:51:22.270Z,98388.75
2018-05-17T16:53:50.962Z,98383.42
2018-05-17T16:56:25.294Z,98380.41
2018-05-17T16:58:53.581Z,98383.36
2018-05-17T17:01:21.932Z,98387.63
2018-05-17T17:03:50.262Z,98393.24
2018-05-17T17:06:18.806Z,98391.81
2018-05-17T17:08:47.666Z,98402.20
2018-05-17T17:11:15.982Z,98402.81
2018-05-17T17:13:44.267Z,98407.48
2018-05-17T17:16:12.586Z,98403.23
2018-05-17T17:18:41.668Z,98400.63
2018-05-17T17:21:10.566Z,98405.73
2018-05-17T17:23:38.862Z,98402.77
2018-05-17T17:26:07.488Z,98405.72
2018-05-17T17:28:36.233Z,98407.46
2018-05-17T17:31:04.590Z,98407.64
2018-05-17T17:33:32.967Z,98409.05
2018-05-17T17:36:01.251Z,98407.19
2018-05-17T17:38:30.089Z,98410.84
2018-05-17T17:40:59.151Z,98412.52
2018-05-17T17:43:28.394Z,98413.95
2018-05-17T17:45:56.711Z,98413.45
2018-05-17T17:48:24.997Z,98408.48
2018-05-17T17:50:53.295Z,98412.97
2018-05-17T17:53:21.626Z,98410.52
2018-05-17T17:55:50.618Z,98413.77
2018-05-17T17:58:19.732Z,98415.05
2018-05-17T18:00:48.025Z,98412.75
2018-05-17T18:03:16.318Z,98414.89
2018-05-17T18:05:45.122Z,98409.94
2018-05-17T18:08:13.430Z,98410.84
2018-05-17T18:10:41.730Z,98414.42
2018-05-17T18:13:10.104Z,98417.71
2018-05-17T18:15:38.397Z,98419.37
2018-05-17T18:18:07.499Z,98416.59
2018-05-17T18:20:36.618Z,98411.19
2018-05-17T18:23:05.451Z,98416.50
2018-05-17T18:25:33.741Z,98414.22
2018-05-17T18:28:02.086Z,98418.01
2018-05-17T18:30:30.715Z,98416.01
2018-05-17T18:32:59.486Z,98426.26
2018-05-17T18:35:27.839Z,98418.78
2018-05-17T18:37:56.291Z,98417.57
2018-05-17T18:40:25.163Z,98413.35
2018-05-17T18:42:53.711Z,98420.83
2018-05-17T18:45:23.178Z,98416.90
2018-05-17T18:47:51.559Z,98420.44
2018-05-17T18:50:19.972Z,98421.05
2018-05-17T18:52:48.280Z,98415.81
2018-05-17T18:55:22.914Z,98417.96
2018-05-17T18:57:45.674Z,98424.60
2018-05-17T19:00:13.982Z,98423.98
2018-05-17T19:02:42.709Z,98434.56
2018-05-17T19:05:10.948Z,98441.70
2018-05-17T19:07:39.234Z,98435.44
2018-05-17T19:10:07.571Z,98443.77
2018-05-17T19:12:37.104Z,98443.88
2018-05-17T19:15:05.401Z,98446.39
2018-05-17T19:17:34.207Z,98450.73
2018-05-17T19:20:02.560Z,98445.41
2018-05-17T19:22:30.859Z,98454.11
2018-05-17T19:24:59.275Z,98462.25
2018-05-17T19:27:27.930Z,98464.48
2018-05-17T19:29:56.227Z,98467.00
2018-05-17T19:32:24.820Z,98468.52
2018-05-17T19:34:53.113Z,98470.44
2018-05-17T19:37:21.493Z,98472.43
2018-05-17T19:39:49.866Z,98477.39
2018-05-17T19:42:18.150Z,98481.22
2018-05-17T19:44:46.462Z,98485.69
2018-05-17T19:47:14.817Z,98487.75
2018-05-17T19:49:43.119Z,98487.73
2018-05-17T19:52:11.581Z,98494.03
2018-05-17T19:54:39.948Z,98493.28
2018-05-17T19:57:08.274Z,98489.58
2018-05-17T19:59:36.733Z,98489.09
2018-05-17T20:02:05.003Z,98492.53
2018-05-17T20:04:33.423Z,98492.80
2018-05-17T20:07:02.834Z,98490.94
2018-05-17T20:09:31.270Z,98488.19
2018-05-17T20:11:59.923Z,98493.15
2018-05-17T20:14:28.399Z,98494.27
2018-05-17T20:16:56.776Z,98495.22
2018-05-17T20:19:25.359Z,98504.07
2018-05-17T20:21:54.208Z,98500.64
2018-05-17T20:24:22.631Z,98502.89
2018-05-17T20:26:50.923Z,98504.30
2018-05-17T20:29:19.257Z,98506.55
2018-05-17T20:31:48.061Z,98506.95
2018-05-17T20:34:16.387Z,98501.06
2018-05-17T20:36:44.748Z,98505.05
2018-05-17T20:39:13.819Z,98499.47
2018-05-17T20:41:42.175Z,98503.55
2018-05-17T20:44:10.554Z,98514.55
2018-05-17T20:46:39.435Z,98510.24
2018-05-17T20:49:07.719Z,98509.84
2018-05-17T20:51:36.781Z,98515.80
2018-05-17T20:54:05.078Z,98512.23
2018-05-17T20:56:33.654Z,98519.95
2018-05-17T20:59:02.255Z,98514.72
2018-05-17T21:01:31.163Z,98513.28
2018-05-17T21:04:00.405Z,98512.21
2018-05-17T21:06:28.718Z,98511.16
2018-05-17T21:08:57.071Z,98511.12
2018-05-17T21:11:25.392Z,98513.38
2018-05-17T21:13:53.747Z,98517.80
2018-05-17T21:16:22.255Z,98518.61
2018-05-17T21:18:50.599Z,98507.92
2018-05-17T21:21:18.883Z,98515.55
2018-05-17T21:23:47.438Z,98510.58
2018-05-17T21:26:15.767Z,98510.99
2018-05-17T21:28:44.276Z,98514.67
2018-05-17T21:31:12.562Z,98515.88
2018-05-17T21:33:40.904Z,98520.64
2018-05-17T21:36:09.201Z,98515.71
2018-05-17T21:38:37.526Z,98516.27
2018-05-17T21:41:06.588Z,98516.86
2018-05-17T21:43:35.320Z,98517.42
2018-05-17T21:46:03.601Z,98516.35
2018-05-17T21:48:31.932Z,98516.67
2018-05-17T21:51:01.038Z,98516.36
2018-05-17T21:53:29.598Z,98520.48
2018-05-17T21:55:57.882Z,98521.27
2018-05-17T21:58:32.060Z,98516.95
2018-05-17T22:01:00.918Z,98518.41
2018-05-17T22:03:29.223Z,98523.06
2018-05-17T22:05:57.511Z,98523.73
2018-05-17T22:08:26.689Z,98524.73
2018-05-17T22:10:54.970Z,98525.27
2018-05-17T22:13:23.267Z,98524.13
2018-05-17T22:15:51.670Z,98523.73
2018-05-17T22:18:19.958Z,98524.23
2018-05-17T22:20:48.280Z,98528.00
2018-05-17T22:23:16.635Z,98527.70
2018-05-17T22:25:44.981Z,98524.58
2018-05-17T22:28:13.266Z,98525.84
2018-05-17T22:30:41.582Z,98520.60
2018-05-17T22:33:09.858Z,98523.28
2018-05-17T22:35:38.159Z,98522.34
2018-05-17T22:38:06.538Z,98525.22
2018-05-17T22:40:34.867Z,98521.46
2018-05-17T22:43:03.147Z,98521.25
2018-05-17T22:45:31.478Z,98525.28
2018-05-17T22:47:59.762Z,98516.42
2018-05-17T22:50:28.812Z,98518.45
2018-05-17T22:52:56.995Z,98512.27
2018-05-17T22:55:25.547Z,98514.81
2018-05-17T22:58:11.619Z,98508.77
2018-05-17T23:00:39.906Z,98505.35
2018-05-17T23:03:08.838Z,98508.38
2018-05-17T23:05:37.210Z,98510.84
2018-05-17T23:08:05.607Z,98514.09
2018-05-17T23:10:33.895Z,98512.03
2018-05-17T23:13:02.115Z,98508.31
2018-05-17T23:15:30.425Z,98507.16
2018-05-17T23:17:58.714Z,98517.42
2018-05-17T23:20:27.051Z,98517.34
2018-05-17T23:22:55.336Z,98519.98
2018-05-17T23:25:24.050Z,98521.66
2018-05-17T23:27:52.683Z,98521.86
2018-05-17T23:30:20.900Z,98517.25
2018-05-17T23:32:49.228Z,98516.45
2018-05-17T23:35:18.488Z,98520.28
2018-05-17T23:37:46.774Z,98512.45
2018-05-17T23:53:42.415Z,98500.06
2018-05-17T23:56:10.743Z,98502.27
2018-05-17T23:58:39.037Z,98502.55
